sensor_id;sensor_type;location;lat;lon;timestamp;pressure;altitude;pressure_sealevel;temperature;humidity
42587;BME280;28216;53.362;-6.288;2023-01-28T00:01:36;103075.41;;;4.51;100.00
42587;BME280;28216;53.362;-6.288;2023-01-28T00:04:02;103082.22;;;4.53;100.00
42587;BME280;28216;53.362;-6.288;2023-01-28T00:06:27;103076.97;;;4.55;100.00
42587;BME280;28216;53.362;-6.288;2023-01-28T00:08:52;103082.88;;;4.58;100.00
42587;BME280;28216;53.362;-6.288;2023-01-28T00:11:20;103078.41;;;4.62;100.00
42587;BME280;28216;53.362;-6.288;2023-01-28T00:13:52;103066.19;;;4.64;100.00
42587;BME280;28216;53.362;-6.288;2023-01-28T00:16:19;103059.25;;;4.64;100.00
42587;BME280;28216;53.362;-6.288;2023-01-28T00:18:44;103056.66;;;4.64;100.00
42587;BME280;28216;53.362;-6.288;2023-01-28T00:21:12;103053.13;;;4.65;100.00
42587;BME280;28216;53.362;-6.288;2023-01-28T00:23:39;103050.81;;;4.59;100.00
42587;BME280;28216;53.362;-6.288;2023-01-28T00:26:08;103043.97;;;4.57;100.00
42587;BME280;28216;53.362;-6.288;2023-01-28T00:28:34;103045.88;;;4.53;100.00
42587;BME280;28216;53.362;-6.288;2023-01-28T00:31:16;103043.47;;;4.49;100.00
42587;BME280;28216;53.362;-6.288;2023-01-28T00:33:44;103047.91;;;4.45;100.00
42587;BME280;28216;53.362;-6.288;2023-01-28T00:36:11;103052.38;;;4.41;100.00
42587;BME280;28216;53.362;-6.288;2023-01-28T00:38:37;103059.38;;;4.39;100.00
42587;BME280;28216;53.362;-6.288;2023-01-28T00:41:11;103071.47;;;4.40;100.00
42587;BME280;28216;53.362;-6.288;2023-01-28T00:43:38;103077.38;;;4.44;100.00
42587;BME280;28216;53.362;-6.288;2023-01-28T00:46:05;103066.91;;;4.47;100.00
42587;BME280;28216;53.362;-6.288;2023-01-28T00:48:38;103065.88;;;4.51;100.00
42587;BME280;28216;53.362;-6.288;2023-01-28T00:51:05;103063.13;;;4.54;100.00
42587;BME280;28216;53.362;-6.288;2023-01-28T00:53:31;103062.16;;;4.57;100.00
42587;BME280;28216;53.362;-6.288;2023-01-28T00:55:56;103059.44;;;4.60;100.00
42587;BME280;28216;53.362;-6.288;2023-01-28T00:58:22;103042.94;;;4.61;100.00
42587;BME280;28216;53.362;-6.288;2023-01-28T01:00:49;103036.06;;;4.60;100.00
42587;BME280;28216;53.362;-6.288;2023-01-28T01:03:15;103033.53;;;4.58;100.00
42587;BME280;28216;53.362;-6.288;2023-01-28T01:05:41;103036.13;;;4.58;100.00
42587;BME280;28216;53.362;-6.288;2023-01-28T01:08:06;103032.63;;;4.59;100.00
42587;BME280;28216;53.362;-6.288;2023-01-28T01:10:32;103026.63;;;4.57;100.00
42587;BME280;28216;53.362;-6.288;2023-01-28T01:12:59;103026.56;;;4.59;100.00
42587;BME280;28216;53.362;-6.288;2023-01-28T01:15:24;103023.19;;;4.57;100.00
42587;BME280;28216;53.362;-6.288;2023-01-28T01:17:50;103015.34;;;4.58;100.00
42587;BME280;28216;53.362;-6.288;2023-01-28T01:22:41;103012.75;;;4.58;100.00
42587;BME280;28216;53.362;-6.288;2023-01-28T01:25:07;103013.50;;;4.60;100.00
42587;BME280;28216;53.362;-6.288;2023-01-28T01:27:33;103001.38;;;4.61;100.00
42587;BME280;28216;53.362;-6.288;2023-01-28T01:29:58;103015.13;;;4.63;100.00
42587;BME280;28216;53.362;-6.288;2023-01-28T01:32:33;103005.59;;;4.63;100.00
42587;BME280;28216;53.362;-6.288;2023-01-28T01:35:02;102991.69;;;4.64;100.00
42587;BME280;28216;53.362;-6.288;2023-01-28T01:37:30;102989.28;;;4.60;100.00
42587;BME280;28216;53.362;-6.288;2023-01-28T01:39:55;103003.00;;;4.63;100.00
42587;BME280;28216;53.362;-6.288;2023-01-28T01:42:21;103003.00;;;4.63;100.00
42587;BME280;28216;53.362;-6.288;2023-01-28T01:44:55;103001.16;;;4.65;100.00
42587;BME280;28216;53.362;-6.288;2023-01-28T01:51:04;103005.19;;;4.72;100.00
42587;BME280;28216;53.362;-6.288;2023-01-28T01:53:23;102995.56;;;4.74;100.00
42587;BME280;28216;53.362;-6.288;2023-01-28T01:55:51;103001.41;;;4.79;100.00
42587;BME280;28216;53.362;-6.288;2023-01-28T01:58:22;102996.78;;;4.86;100.00
42587;BME280;28216;53.362;-6.288;2023-01-28T02:00:49;102999.38;;;4.86;100.00
42587;BME280;28216;53.362;-6.288;2023-01-28T02:03:16;103003.47;;;4.92;100.00
42587;BME280;28216;53.362;-6.288;2023-01-28T02:05:44;103001.59;;;4.95;100.00
42587;BME280;28216;53.362;-6.288;2023-01-28T02:08:10;103009.19;;;5.00;100.00
42587;BME280;28216;53.362;-6.288;2023-01-28T02:11:08;103014.31;;;5.01;100.00
42587;BME280;28216;53.362;-6.288;2023-01-28T02:13:41;103022.88;;;5.03;100.00
42587;BME280;28216;53.362;-6.288;2023-01-28T02:16:08;103023.66;;;5.05;100.00
42587;BME280;28216;53.362;-6.288;2023-01-28T02:18:34;103020.28;;;5.03;100.00
42587;BME280;28216;53.362;-6.288;2023-01-28T02:24:17;103027.69;;;5.13;100.00
42587;BME280;28216;53.362;-6.288;2023-01-28T02:32:08;103042.97;;;5.20;100.00
42587;BME280;28216;53.362;-6.288;2023-01-28T02:37:14;103039.44;;;5.21;100.00
42587;BME280;28216;53.362;-6.288;2023-01-28T02:39:48;103055.09;;;5.20;100.00
42587;BME280;28216;53.362;-6.288;2023-01-28T02:42:28;103055.84;;;5.23;100.00
42587;BME280;28216;53.362;-6.288;2023-01-28T02:44:54;103053.38;;;5.20;100.00
42587;BME280;28216;53.362;-6.288;2023-01-28T02:47:20;103043.81;;;5.21;100.00
42587;BME280;28216;53.362;-6.288;2023-01-28T02:50:08;103042.91;;;5.22;100.00
42587;BME280;28216;53.362;-6.288;2023-01-28T02:55:36;103010.25;;;5.15;100.00
42587;BME280;28216;53.362;-6.288;2023-01-28T02:58:19;103010.38;;;5.11;100.00
42587;BME280;28216;53.362;-6.288;2023-01-28T03:00:55;103006.09;;;5.10;100.00
42587;BME280;28216;53.362;-6.288;2023-01-28T03:03:28;102998.50;;;5.06;100.00
42587;BME280;28216;53.362;-6.288;2023-01-28T03:06:00;102996.69;;;5.08;100.00
42587;BME280;28216;53.362;-6.288;2023-01-28T03:08:55;103005.19;;;5.11;100.00
42587;BME280;28216;53.362;-6.288;2023-01-28T03:11:43;103002.00;;;5.05;100.00
42587;BME280;28216;53.362;-6.288;2023-01-28T03:14:31;102988.94;;;5.06;100.00
42587;BME280;28216;53.362;-6.288;2023-01-28T03:20:41;102986.28;;;5.08;100.00
42587;BME280;28216;53.362;-6.288;2023-01-28T03:23:31;102986.13;;;5.11;100.00
42587;BME280;28216;53.362;-6.288;2023-01-28T03:26:20;102980.72;;;5.16;100.00
42587;BME280;28216;53.362;-6.288;2023-01-28T03:29:10;102978.00;;;5.19;100.00
42587;BME280;28216;53.362;-6.288;2023-01-28T03:31:55;102981.50;;;5.18;100.00
42587;BME280;28216;53.362;-6.288;2023-01-28T03:34:41;102990.03;;;5.21;100.00
42587;BME280;28216;53.362;-6.288;2023-01-28T03:37:26;102995.25;;;5.21;100.00
42587;BME280;28216;53.362;-6.288;2023-01-28T03:39:52;103012.53;;;5.22;100.00
42587;BME280;28216;53.362;-6.288;2023-01-28T03:42:22;103020.25;;;5.24;100.00
42587;BME280;28216;53.362;-6.288;2023-01-28T03:44:48;103006.28;;;5.26;100.00
42587;BME280;28216;53.362;-6.288;2023-01-28T03:47:25;103013.03;;;5.30;100.00
42587;BME280;28216;53.362;-6.288;2023-01-28T03:49:53;102999.88;;;5.33;100.00
42587;BME280;28216;53.362;-6.288;2023-01-28T03:52:21;102992.78;;;5.37;100.00
42587;BME280;28216;53.362;-6.288;2023-01-28T03:54:47;102991.94;;;5.36;100.00
42587;BME280;28216;53.362;-6.288;2023-01-28T03:57:16;102991.88;;;5.38;100.00
42587;BME280;28216;53.362;-6.288;2023-01-28T03:59:42;103005.72;;;5.38;100.00
42587;BME280;28216;53.362;-6.288;2023-01-28T04:02:09;103002.13;;;5.41;100.00
42587;BME280;28216;53.362;-6.288;2023-01-28T04:04:39;103001.34;;;5.39;100.00
42587;BME280;28216;53.362;-6.288;2023-01-28T04:07:06;103004.03;;;5.37;100.00
42587;BME280;28216;53.362;-6.288;2023-01-28T04:09:33;103003.88;;;5.40;100.00
42587;BME280;28216;53.362;-6.288;2023-01-28T04:12:00;103003.88;;;5.40;100.00
42587;BME280;28216;53.362;-6.288;2023-01-28T04:14:25;103008.16;;;5.41;100.00
42587;BME280;28216;53.362;-6.288;2023-01-28T04:16:51;102999.38;;;5.44;100.00
42587;BME280;28216;53.362;-6.288;2023-01-28T04:19:19;102996.78;;;5.44;100.00
42587;BME280;28216;53.362;-6.288;2023-01-28T04:21:45;102995.88;;;5.45;100.00
42587;BME280;28216;53.362;-6.288;2023-01-28T04:24:12;102988.00;;;5.47;100.00
42587;BME280;28216;53.362;-6.288;2023-01-28T04:26:38;102990.66;;;5.45;100.00
42587;BME280;28216;53.362;-6.288;2023-01-28T04:29:04;102982.94;;;5.43;100.00
42587;BME280;28216;53.362;-6.288;2023-01-28T04:31:29;102975.19;;;5.42;100.00
42587;BME280;28216;53.362;-6.288;2023-01-28T04:33:55;102991.72;;;5.41;100.00
42587;BME280;28216;53.362;-6.288;2023-01-28T04:36:20;102993.75;;;5.34;100.00
42587;BME280;28216;53.362;-6.288;2023-01-28T04:38:46;102993.00;;;5.32;100.00
42587;BME280;28216;53.362;-6.288;2023-01-28T04:41:11;102980.06;;;5.31;100.00
42587;BME280;28216;53.362;-6.288;2023-01-28T04:43:37;102981.88;;;5.29;100.00
42587;BME280;28216;53.362;-6.288;2023-01-28T04:46:02;102988.84;;;5.28;100.00
42587;BME280;28216;53.362;-6.288;2023-01-28T04:48:27;102990.59;;;5.28;100.00
42587;BME280;28216;53.362;-6.288;2023-01-28T04:50:55;102999.31;;;5.27;100.00
42587;BME280;28216;53.362;-6.288;2023-01-28T04:53:20;103002.84;;;5.26;100.00
42587;BME280;28216;53.362;-6.288;2023-01-28T04:55:46;103015.69;;;5.29;100.00
42587;BME280;28216;53.362;-6.288;2023-01-28T04:58:11;103007.13;;;5.27;100.00
42587;BME280;28216;53.362;-6.288;2023-01-28T05:00:37;103001.00;;;5.28;100.00
42587;BME280;28216;53.362;-6.288;2023-01-28T05:03:02;103011.56;;;5.25;100.00
42587;BME280;28216;53.362;-6.288;2023-01-28T05:05:28;103009.03;;;5.23;100.00
42587;BME280;28216;53.362;-6.288;2023-01-28T05:07:55;103002.97;;;5.23;100.00
42587;BME280;28216;53.362;-6.288;2023-01-28T05:10:20;103001.34;;;5.20;100.00
42587;BME280;28216;53.362;-6.288;2023-01-28T05:12:47;103013.47;;;5.20;100.00
42587;BME280;28216;53.362;-6.288;2023-01-28T05:15:14;103007.41;;;5.21;100.00
42587;BME280;28216;53.362;-6.288;2023-01-28T05:17:39;103001.34;;;5.20;100.00
42587;BME280;28216;53.362;-6.288;2023-01-28T05:20:07;103008.28;;;5.20;100.00
42587;BME280;28216;53.362;-6.288;2023-01-28T05:22:33;103014.41;;;5.19;100.00
42587;BME280;28216;53.362;-6.288;2023-01-28T05:24:58;103017.81;;;5.21;100.00
42587;BME280;28216;53.362;-6.288;2023-01-28T05:27:24;103028.97;;;5.23;100.00
42587;BME280;28216;53.362;-6.288;2023-01-28T05:29:49;103028.84;;;5.26;100.00
42587;BME280;28216;53.362;-6.288;2023-01-28T05:32:14;103030.47;;;5.28;100.00
42587;BME280;28216;53.362;-6.288;2023-01-28T05:34:40;103039.88;;;5.31;100.00
42587;BME280;28216;53.362;-6.288;2023-01-28T05:37:05;103037.91;;;5.36;100.00
42587;BME280;28216;53.362;-6.288;2023-01-28T05:39:31;103026.44;;;5.40;100.00
42587;BME280;28216;53.362;-6.288;2023-01-28T05:41:56;103034.06;;;5.45;100.00
42587;BME280;28216;53.362;-6.288;2023-01-28T05:44:22;103037.34;;;5.48;100.00
42587;BME280;28216;53.362;-6.288;2023-01-28T05:46:47;103036.38;;;5.51;100.00
42587;BME280;28216;53.362;-6.288;2023-01-28T05:49:13;103026.81;;;5.51;100.00
42587;BME280;28216;53.362;-6.288;2023-01-28T05:51:39;103032.84;;;5.52;100.00
42587;BME280;28216;53.362;-6.288;2023-01-28T05:54:07;103018.09;;;5.52;100.00
42587;BME280;28216;53.362;-6.288;2023-01-28T05:56:33;103012.09;;;5.50;100.00
42587;BME280;28216;53.362;-6.288;2023-01-28T05:58:59;103008.66;;;5.50;100.00
42587;BME280;28216;53.362;-6.288;2023-01-28T06:01:25;103004.50;;;5.46;100.00
42587;BME280;28216;53.362;-6.288;2023-01-28T06:03:50;103010.00;;;5.39;100.00
42587;BME280;28216;53.362;-6.288;2023-01-28T06:06:16;103004.94;;;5.36;100.00
42587;BME280;28216;53.362;-6.288;2023-01-28T06:08:41;103002.63;;;5.30;100.00
42587;BME280;28216;53.362;-6.288;2023-01-28T06:11:06;103006.22;;;5.28;100.00
42587;BME280;28216;53.362;-6.288;2023-01-28T06:13:33;103009.03;;;5.23;100.00
42587;BME280;28216;53.362;-6.288;2023-01-28T06:15:59;103018.66;;;5.21;100.00
42587;BME280;28216;53.362;-6.288;2023-01-28T06:18:24;103006.59;;;5.19;100.00
42587;BME280;28216;53.362;-6.288;2023-01-28T06:20:51;103002.25;;;5.19;100.00
42587;BME280;28216;53.362;-6.288;2023-01-28T06:23:17;102999.78;;;5.16;100.00
42587;BME280;28216;53.362;-6.288;2023-01-28T06:25:42;102999.00;;;5.14;100.00
42587;BME280;28216;53.362;-6.288;2023-01-28T06:28:08;103004.19;;;5.14;100.00
42587;BME280;28216;53.362;-6.288;2023-01-28T06:30:33;103000.81;;;5.12;100.00
42587;BME280;28216;53.362;-6.288;2023-01-28T06:32:59;102995.75;;;5.09;100.00
42587;BME280;28216;53.362;-6.288;2023-01-28T06:35:24;102998.50;;;5.06;100.00
42587;BME280;28216;53.362;-6.288;2023-01-28T06:37:51;102996.88;;;5.03;100.00
42587;BME280;28216;53.362;-6.288;2023-01-28T06:40:18;102995.25;;;5.01;100.00
42587;BME280;28216;53.362;-6.288;2023-01-28T06:42:43;102992.03;;;4.96;100.00
42587;BME280;28216;53.362;-6.288;2023-01-28T06:45:09;102993.84;;;4.94;100.00
42587;BME280;28216;53.362;-6.288;2023-01-28T06:47:37;103005.94;;;4.95;100.00
42587;BME280;28216;53.362;-6.288;2023-01-28T06:50:03;103008.53;;;4.95;100.00
42587;BME280;28216;53.362;-6.288;2023-01-28T06:52:28;103010.94;;;4.99;100.00
42587;BME280;28216;53.362;-6.288;2023-01-28T06:54:54;103003.97;;;5.00;100.00
42587;BME280;28216;53.362;-6.288;2023-01-28T06:57:19;103008.13;;;5.04;100.00
42587;BME280;28216;53.362;-6.288;2023-01-28T06:59:45;102996.69;;;5.08;100.00
42587;BME280;28216;53.362;-6.288;2023-01-28T07:02:10;103002.59;;;5.11;100.00
42587;BME280;28216;53.362;-6.288;2023-01-28T07:04:36;102995.50;;;5.15;100.00
42587;BME280;28216;53.362;-6.288;2023-01-28T07:07:02;102996.16;;;5.20;100.00
42587;BME280;28216;53.362;-6.288;2023-01-28T07:09:27;102995.09;;;5.24;100.00
42587;BME280;28216;53.362;-6.288;2023-01-28T07:11:53;102988.06;;;5.26;100.00
42587;BME280;28216;53.362;-6.288;2023-01-28T07:14:18;102993.97;;;5.30;100.00
42587;BME280;28216;53.362;-6.288;2023-01-28T07:16:44;102994.75;;;5.32;100.00
42587;BME280;28216;53.362;-6.288;2023-01-28T07:19:09;102994.69;;;5.33;100.00
42587;BME280;28216;53.362;-6.288;2023-01-28T07:21:34;102997.97;;;5.37;100.00
42587;BME280;28216;53.362;-6.288;2023-01-28T07:24:00;102989.13;;;5.41;100.00
42587;BME280;28216;53.362;-6.288;2023-01-28T07:26:25;102989.88;;;5.43;100.00
42587;BME280;28216;53.362;-6.288;2023-01-28T07:28:51;102994.94;;;5.46;100.00
42587;BME280;28216;53.362;-6.288;2023-01-28T07:31:16;102999.03;;;5.52;100.00
42587;BME280;28216;53.362;-6.288;2023-01-28T07:33:42;103004.84;;;5.57;100.00
42587;BME280;28216;53.362;-6.288;2023-01-28T07:36:07;102999.59;;;5.58;100.00
42587;BME280;28216;53.362;-6.288;2023-01-28T07:38:33;102998.66;;;5.59;100.00
42587;BME280;28216;53.362;-6.288;2023-01-28T07:40:58;102988.25;;;5.59;100.00
42587;BME280;28216;53.362;-6.288;2023-01-28T07:43:24;102988.25;;;5.59;100.00
42587;BME280;28216;53.362;-6.288;2023-01-28T07:45:49;102992.69;;;5.57;100.00
42587;BME280;28216;53.362;-6.288;2023-01-28T07:48:14;102987.56;;;5.56;100.00
42587;BME280;28216;53.362;-6.288;2023-01-28T07:50:40;102979.91;;;5.53;100.00
42587;BME280;28216;53.362;-6.288;2023-01-28T07:53:08;102979.13;;;5.51;100.00
42587;BME280;28216;53.362;-6.288;2023-01-28T07:55:35;102983.63;;;5.47;100.00
42587;BME280;28216;53.362;-6.288;2023-01-28T07:58:05;102987.22;;;5.45;100.00
42587;BME280;28216;53.362;-6.288;2023-01-28T08:00:33;102990.72;;;5.43;100.00
42587;BME280;28216;53.362;-6.288;2023-01-28T08:03:02;102995.09;;;5.43;100.00
42587;BME280;28216;53.362;-6.288;2023-01-28T08:05:37;102997.69;;;5.43;100.00
42587;BME280;28216;53.362;-6.288;2023-01-28T08:08:07;103005.44;;;5.45;100.00
42587;BME280;28216;53.362;-6.288;2023-01-28T08:10:33;103007.97;;;5.46;100.00
42587;BME280;28216;53.362;-6.288;2023-01-28T08:13:02;103014.78;;;5.49;100.00
42587;BME280;28216;53.362;-6.288;2023-01-28T08:15:28;103015.41;;;5.54;100.00
42587;BME280;28216;53.362;-6.288;2023-01-28T08:17:55;103017.94;;;5.55;100.00
42587;BME280;28216;53.362;-6.288;2023-01-28T08:20:22;103016.94;;;5.58;100.00
42587;BME280;28216;53.362;-6.288;2023-01-28T08:22:48;103021.09;;;5.62;100.00
42587;BME280;28216;53.362;-6.288;2023-01-28T08:25:14;103027.84;;;5.66;100.00
42587;BME280;28216;53.362;-6.288;2023-01-28T08:27:40;103025.03;;;5.70;100.00
42587;BME280;28216;53.362;-6.288;2023-01-28T08:30:06;103023.19;;;5.72;100.00
42587;BME280;28216;53.362;-6.288;2023-01-28T08:32:35;103023.03;;;5.75;100.00
42587;BME280;28216;53.362;-6.288;2023-01-28T08:38:27;103026.19;;;5.82;100.00
42587;BME280;28216;53.362;-6.288;2023-01-28T08:40:55;103035.63;;;5.85;100.00
42587;BME280;28216;53.362;-6.288;2023-01-28T08:43:22;103032.88;;;5.88;100.00
42587;BME280;28216;53.362;-6.288;2023-01-28T08:45:48;103036.28;;;5.90;100.00
42587;BME280;28216;53.362;-6.288;2023-01-28T08:48:17;103031.78;;;5.93;100.00
42587;BME280;28216;53.362;-6.288;2023-01-28T08:50:44;103030.75;;;5.97;100.00
42587;BME280;28216;53.362;-6.288;2023-01-28T08:53:15;103028.91;;;5.99;100.00
42587;BME280;28216;53.362;-6.288;2023-01-28T08:55:42;103024.53;;;6.00;100.00
42587;BME280;28216;53.362;-6.288;2023-01-28T08:58:16;103033.19;;;6.00;100.00
42587;BME280;28216;53.362;-6.288;2023-01-28T09:00:45;103036.50;;;6.04;100.00
42587;BME280;28216;53.362;-6.288;2023-01-28T09:03:11;103032.06;;;6.06;100.00
42587;BME280;28216;53.362;-6.288;2023-01-28T09:05:37;103029.16;;;6.12;100.00
42587;BME280;28216;53.362;-6.288;2023-01-28T09:08:05;103030.59;;;6.18;100.00
42587;BME280;28216;53.362;-6.288;2023-01-28T09:10:30;103028.53;;;6.24;100.00
42587;BME280;28216;53.362;-6.288;2023-01-28T09:12:56;103035.06;;;6.33;100.00
42587;BME280;28216;53.362;-6.288;2023-01-28T09:15:22;103042.66;;;6.37;100.00
42587;BME280;28216;53.362;-6.288;2023-01-28T09:21:10;103031.22;;;6.57;100.00
42587;BME280;28216;53.362;-6.288;2023-01-28T09:23:39;103037.88;;;6.63;100.00
42587;BME280;28216;53.362;-6.288;2023-01-28T09:26:05;103042.09;;;6.65;100.00
42587;BME280;28216;53.362;-6.288;2023-01-28T09:28:32;103037.72;;;6.66;100.00
42587;BME280;28216;53.362;-6.288;2023-01-28T09:31:08;103031.69;;;6.65;100.00
42587;BME280;28216;53.362;-6.288;2023-01-28T09:33:37;103029.84;;;6.67;100.00
42587;BME280;28216;53.362;-6.288;2023-01-28T09:36:05;103027.94;;;6.71;100.00
42587;BME280;28216;53.362;-6.288;2023-01-28T09:38:32;103030.31;;;6.76;100.00
42587;BME280;28216;53.362;-6.288;2023-01-28T09:40:59;103031.75;;;6.81;100.00
42587;BME280;28216;53.362;-6.288;2023-01-28T09:43:45;103036.75;;;6.86;100.00
42587;BME280;28216;53.362;-6.288;2023-01-28T09:46:15;103041.03;;;6.87;100.00
42587;BME280;28216;53.362;-6.288;2023-01-28T09:48:51;103034.97;;;6.86;100.00
42587;BME280;28216;53.362;-6.288;2023-01-28T09:51:39;103042.63;;;6.89;100.00
42587;BME280;28216;53.362;-6.288;2023-01-28T09:54:20;103043.31;;;6.93;100.00
42587;BME280;28216;53.362;-6.288;2023-01-28T09:56:55;103058.03;;;6.94;100.00
42587;BME280;28216;53.362;-6.288;2023-01-28T09:59:33;103062.25;;;6.96;100.00
42587;BME280;28216;53.362;-6.288;2023-01-28T10:02:25;103055.19;;;6.98;100.00
42587;BME280;28216;53.362;-6.288;2023-01-28T10:10:10;103064.47;;;7.04;100.00
42587;BME280;28216;53.362;-6.288;2023-01-28T10:13:10;103074.91;;;7.04;100.00
42587;BME280;28216;53.362;-6.288;2023-01-28T10:18:52;103073.25;;;7.19;100.00
42587;BME280;28216;53.362;-6.288;2023-01-28T10:21:26;103080.69;;;7.26;100.00
42587;BME280;28216;53.362;-6.288;2023-01-28T10:24:04;103081.28;;;7.31;100.00
42587;BME280;28216;53.362;-6.288;2023-01-28T10:26:39;103081.97;;;7.35;100.00
42587;BME280;28216;53.362;-6.288;2023-01-28T10:29:21;103085.25;;;7.39;100.00
42587;BME280;28216;53.362;-6.288;2023-01-28T10:31:58;103072.97;;;7.41;100.00
42587;BME280;28216;53.362;-6.288;2023-01-28T10:34:27;103073.81;;;7.41;100.00
42587;BME280;28216;53.362;-6.288;2023-01-28T10:36:53;103078.03;;;7.44;100.00
42587;BME280;28216;53.362;-6.288;2023-01-28T10:39:21;103086.72;;;7.44;100.00
42587;BME280;28216;53.362;-6.288;2023-01-28T10:41:49;103096.22;;;7.45;100.00
42587;BME280;28216;53.362;-6.288;2023-01-28T10:44:34;103100.53;;;7.46;100.00
42587;BME280;28216;53.362;-6.288;2023-01-28T10:47:09;103090.16;;;7.45;100.00
42587;BME280;28216;53.362;-6.288;2023-01-28T10:49:41;103078.88;;;7.44;100.00
42587;BME280;28216;53.362;-6.288;2023-01-28T10:52:12;103081.63;;;7.41;100.00
42587;BME280;28216;53.362;-6.288;2023-01-28T10:54:39;103076.28;;;7.44;100.00
42587;BME280;28216;53.362;-6.288;2023-01-28T10:57:12;103072.50;;;7.50;100.00
42587;BME280;28216;53.362;-6.288;2023-01-28T10:59:38;103082.69;;;7.54;100.00
42587;BME280;28216;53.362;-6.288;2023-01-28T11:02:27;103077.13;;;7.60;100.00
42587;BME280;28216;53.362;-6.288;2023-01-28T11:05:19;103065.44;;;7.68;100.00
42587;BME280;28216;53.362;-6.288;2023-01-28T11:07:49;103069.56;;;7.72;100.00
42587;BME280;28216;53.362;-6.288;2023-01-28T11:10:33;103053.22;;;7.84;100.00
42587;BME280;28216;53.362;-6.288;2023-01-28T11:13:01;103052.03;;;7.89;100.00
42587;BME280;28216;53.362;-6.288;2023-01-28T11:15:27;103047.38;;;7.94;100.00
42587;BME280;28216;53.362;-6.288;2023-01-28T11:18:04;103044.44;;;8.01;100.00
42587;BME280;28216;53.362;-6.288;2023-01-28T11:20:39;103036.25;;;8.07;100.00
42587;BME280;28216;53.362;-6.288;2023-01-28T11:23:05;103030.75;;;8.11;100.00
42587;BME280;28216;53.362;-6.288;2023-01-28T11:25:31;103025.16;;;8.17;100.00
42587;BME280;28216;53.362;-6.288;2023-01-28T11:28:04;103030.25;;;8.20;100.00
42587;BME280;28216;53.362;-6.288;2023-01-28T11:30:32;103024.84;;;8.23;100.00
42587;BME280;28216;53.362;-6.288;2023-01-28T11:35:29;103011.50;;;8.28;100.00
42587;BME280;28216;53.362;-6.288;2023-01-28T11:37:59;103009.75;;;8.28;100.00
42587;BME280;28216;53.362;-6.288;2023-01-28T11:40:25;103012.03;;;8.35;100.00
42587;BME280;28216;53.362;-6.288;2023-01-28T11:42:52;103016.72;;;8.44;100.00
42587;BME280;28216;53.362;-6.288;2023-01-28T11:45:40;103014.84;;;8.46;100.00
42587;BME280;28216;53.362;-6.288;2023-01-28T12:04:41;103026.03;;;8.34;100.00
42587;BME280;28216;53.362;-6.288;2023-01-28T12:15:39;103012.19;;;8.16;100.00
42587;BME280;28216;53.362;-6.288;2023-01-28T12:18:22;103007.22;;;8.11;100.00
42587;BME280;28216;53.362;-6.288;2023-01-28T12:26:32;103000.91;;;8.15;100.00
42587;BME280;28216;53.362;-6.288;2023-01-28T12:32:21;102998.63;;;8.09;100.00
42587;BME280;28216;53.362;-6.288;2023-01-28T12:38:14;102980.19;;;8.12;100.00
42587;BME280;28216;53.362;-6.288;2023-01-28T12:41:04;102979.41;;;8.10;100.00
42587;BME280;28216;53.362;-6.288;2023-01-28T12:48:50;102974.03;;;8.13;100.00
42587;BME280;28216;53.362;-6.288;2023-01-28T12:51:45;102969.47;;;8.17;100.00
42587;BME280;28216;53.362;-6.288;2023-01-28T12:54:16;102954.56;;;8.19;100.00
42587;BME280;28216;53.362;-6.288;2023-01-28T12:56:48;102961.47;;;8.20;100.00
42587;BME280;28216;53.362;-6.288;2023-01-28T12:59:23;102955.50;;;8.18;100.00
42587;BME280;28216;53.362;-6.288;2023-01-28T13:01:56;102953.03;;;8.15;100.00
42587;BME280;28216;53.362;-6.288;2023-01-28T13:04:37;102950.41;;;8.15;100.00
42587;BME280;28216;53.362;-6.288;2023-01-28T13:07:22;102951.16;;;8.17;100.00
42587;BME280;28216;53.362;-6.288;2023-01-28T13:10:03;102956.38;;;8.17;100.00
42587;BME280;28216;53.362;-6.288;2023-01-28T13:12:34;102952.00;;;8.17;100.00
42587;BME280;28216;53.362;-6.288;2023-01-28T13:15:03;102949.75;;;8.11;100.00
42587;BME280;28216;53.362;-6.288;2023-01-28T13:17:31;102945.09;;;8.16;100.00
42587;BME280;28216;53.362;-6.288;2023-01-28T13:19:59;102941.66;;;8.16;100.00
42587;BME280;28216;53.362;-6.288;2023-01-28T13:22:35;102945.03;;;8.18;100.00
42587;BME280;28216;53.362;-6.288;2023-01-28T13:27:59;102939.03;;;8.16;100.00
42587;BME280;28216;53.362;-6.288;2023-01-28T13:30:34;102945.16;;;8.31;100.00
42587;BME280;28216;53.362;-6.288;2023-01-28T13:33:32;102940.44;;;8.37;100.00
42587;BME280;28216;53.362;-6.288;2023-01-28T13:36:02;102939.22;;;8.43;100.00
42587;BME280;28216;53.362;-6.288;2023-01-28T13:38:31;102937.53;;;8.42;100.00
42587;BME280;28216;53.362;-6.288;2023-01-28T13:40:59;102942.13;;;8.38;100.00
42587;BME280;28216;53.362;-6.288;2023-01-28T13:43:45;102928.19;;;8.38;100.00
42587;BME280;28216;53.362;-6.288;2023-01-28T13:46:25;102929.03;;;8.38;100.00
42587;BME280;28216;53.362;-6.288;2023-01-28T13:48:55;102927.38;;;8.37;100.00
42587;BME280;28216;53.362;-6.288;2023-01-28T13:51:31;102930.31;;;8.31;100.00
42587;BME280;28216;53.362;-6.288;2023-01-28T13:54:18;102922.75;;;8.26;100.00
42587;BME280;28216;53.362;-6.288;2023-01-28T14:02:19;102910.13;;;8.19;100.00
42587;BME280;28216;53.362;-6.288;2023-01-28T14:10:50;102887.38;;;8.21;100.00
42587;BME280;28216;53.362;-6.288;2023-01-28T14:15:56;102878.00;;;8.17;100.00
42587;BME280;28216;53.362;-6.288;2023-01-28T14:18:38;102882.38;;;8.16;100.00
42587;BME280;28216;53.362;-6.288;2023-01-28T14:21:18;102886.78;;;8.16;100.00
42587;BME280;28216;53.362;-6.288;2023-01-28T14:23:50;102890.22;;;8.16;100.00
42587;BME280;28216;53.362;-6.288;2023-01-28T14:32:30;102893.03;;;8.13;100.00
42587;BME280;28216;53.362;-6.288;2023-01-28T14:34:58;102897.31;;;8.14;100.00
42587;BME280;28216;53.362;-6.288;2023-01-28T14:37:28;102898.25;;;8.13;100.00
42587;BME280;28216;53.362;-6.288;2023-01-28T14:39:57;102896.56;;;8.12;100.00
42587;BME280;28216;53.362;-6.288;2023-01-28T14:42:34;102898.34;;;8.12;100.00